createdAt,value
2019-03-30T00:00:30.158Z,62.06
2019-03-30T00:02:59.779Z,62.04
2019-03-30T00:05:29.409Z,62.12
2019-03-30T00:07:58.908Z,61.98
2019-03-30T00:10:28.430Z,61.95
2019-03-30T00:12:58.021Z,61.97
2019-03-30T00:15:27.589Z,62.03
2019-03-30T00:17:57.202Z,61.88
2019-03-30T00:20:26.742Z,62.01
2019-03-30T00:22:56.224Z,62.04
2019-03-30T00:25:45.021Z,62.18
2019-03-30T00:28:14.635Z,62.26
2019-03-30T00:30:44.115Z,62.19
2019-03-30T00:33:13.679Z,62.19
2019-03-30T00:35:43.254Z,62.22
2019-03-30T00:38:12.816Z,61.94
2019-03-30T00:40:42.365Z,62.28
2019-03-30T00:43:11.856Z,62.30
2019-03-30T00:45:41.382Z,62.28
2019-03-30T00:48:10.857Z,62.34
2019-03-30T00:50:40.345Z,62.56
2019-03-30T00:53:09.807Z,62.61
2019-03-30T00:55:39.354Z,62.59
2019-03-30T00:58:09.048Z,62.32
2019-03-30T01:00:38.524Z,62.54
2019-03-30T01:03:08.002Z,62.53
2019-03-30T01:05:37.625Z,62.45
2019-03-30T01:08:07.179Z,62.71
2019-03-30T01:10:36.662Z,62.76
2019-03-30T01:13:06.266Z,62.82
2019-03-30T01:15:35.747Z,62.68
2019-03-30T01:18:05.309Z,62.85
2019-03-30T01:20:34.791Z,62.72
2019-03-30T01:23:04.255Z,63.04
2019-03-30T01:25:33.892Z,62.78
2019-03-30T01:28:03.473Z,63.04
2019-03-30T01:30:32.946Z,63.03
2019-03-30T01:33:02.429Z,62.96
2019-03-30T01:35:31.922Z,62.99
2019-03-30T01:38:01.381Z,63.06
2019-03-30T01:40:30.855Z,63.20
2019-03-30T01:43:00.354Z,63.35
2019-03-30T01:45:29.900Z,63.37
2019-03-30T01:47:59.429Z,63.15
2019-03-30T01:50:29.005Z,63.20
2019-03-30T01:52:58.460Z,63.26
2019-03-30T01:55:27.922Z,63.36
2019-03-30T01:57:57.426Z,63.38
2019-03-30T02:00:26.883Z,63.30
2019-03-30T02:02:56.437Z,63.33
2019-03-30T02:05:25.980Z,63.25
2019-03-30T02:07:55.466Z,63.29
2019-03-30T02:10:40.391Z,63.30
2019-03-30T02:13:10.684Z,63.34
2019-03-30T02:15:40.491Z,63.15
2019-03-30T02:18:09.962Z,63.29
2019-03-30T02:20:41.932Z,63.07
2019-03-30T02:23:11.863Z,63.06
2019-03-30T02:25:41.389Z,63.14
2019-03-30T02:28:11.196Z,63.03
2019-03-30T02:30:40.772Z,62.83
2019-03-30T02:33:10.258Z,63.01
2019-03-30T02:35:39.784Z,62.89
2019-03-30T02:38:09.348Z,62.99
2019-03-30T02:40:38.944Z,62.88
2019-03-30T02:43:08.499Z,62.98
2019-03-30T02:45:38.023Z,62.96
2019-03-30T02:48:07.510Z,62.94
2019-03-30T02:50:49.566Z,62.79
2019-03-30T02:53:08.296Z,62.84
2019-03-30T02:55:37.753Z,62.77
2019-03-30T02:58:07.310Z,62.66
2019-03-30T03:00:36.865Z,62.53
2019-03-30T03:03:06.471Z,62.51
2019-03-30T03:05:35.934Z,62.56
2019-03-30T03:08:05.530Z,62.72
2019-03-30T03:10:35.013Z,62.69
2019-03-30T03:13:04.572Z,62.72
2019-03-30T03:15:34.183Z,62.67
2019-03-30T03:18:03.668Z,62.50
2019-03-30T03:20:33.148Z,62.37
2019-03-30T03:23:02.675Z,62.46
2019-03-30T03:25:32.238Z,62.44
2019-03-30T03:28:01.714Z,62.57
2019-03-30T03:30:31.187Z,62.26
2019-03-30T03:33:00.652Z,62.46
2019-03-30T03:35:30.129Z,62.32
2019-03-30T03:37:59.692Z,62.29
2019-03-30T03:40:29.142Z,62.33
2019-03-30T03:42:58.617Z,62.37
2019-03-30T03:45:28.081Z,62.38
2019-03-30T03:47:57.560Z,62.24
2019-03-30T03:50:43.386Z,62.33
2019-03-30T03:53:15.301Z,62.81
2019-03-30T03:55:45.728Z,62.78
2019-03-30T03:58:18.009Z,62.90
2019-03-30T04:00:47.673Z,62.75
2019-03-30T04:03:18.656Z,62.86
2019-03-30T04:05:51.666Z,62.92
2019-03-30T04:08:23.436Z,62.91
2019-03-30T04:10:54.005Z,62.83
2019-03-30T04:13:28.199Z,62.80
2019-03-30T04:15:57.794Z,62.99
2019-03-30T04:18:27.525Z,63.09
2019-03-30T04:20:57.020Z,63.02
2019-03-30T04:23:26.552Z,62.90
2019-03-30T04:25:56.105Z,62.97
2019-03-30T04:28:25.598Z,63.17
2019-03-30T04:30:55.059Z,63.20
2019-03-30T04:33:24.538Z,63.30
2019-03-30T04:35:54.020Z,63.54
2019-03-30T04:38:23.485Z,63.33
2019-03-30T04:40:52.986Z,63.70
2019-03-30T04:43:22.440Z,63.74
2019-03-30T04:45:52.095Z,63.73
2019-03-30T04:48:21.704Z,63.93
2019-03-30T04:50:51.240Z,63.75
2019-03-30T04:53:20.714Z,63.96
2019-03-30T04:55:50.203Z,64.08
2019-03-30T04:58:19.672Z,64.29
2019-03-30T05:00:49.731Z,64.31
2019-03-30T05:03:19.176Z,64.21
2019-03-30T05:05:48.666Z,64.13
2019-03-30T05:08:18.155Z,64.20
2019-03-30T05:10:47.610Z,64.38
2019-03-30T05:13:17.104Z,64.39
2019-03-30T05:15:46.610Z,64.57
2019-03-30T05:18:16.137Z,64.67
2019-03-30T05:20:45.593Z,64.83
2019-03-30T05:23:15.142Z,64.62
2019-03-30T05:25:44.623Z,64.97
2019-03-30T05:28:14.114Z,65.04
2019-03-30T05:30:43.571Z,64.98
2019-03-30T05:33:13.107Z,65.15
2019-03-30T05:35:42.673Z,65.03
2019-03-30T05:38:12.127Z,65.01
2019-03-30T05:40:41.615Z,64.79
2019-03-30T05:43:11.099Z,65.05
2019-03-30T05:45:40.588Z,65.15
2019-03-30T05:48:10.092Z,65.16
2019-03-30T05:50:39.547Z,65.24
2019-03-30T05:53:09.046Z,65.21
2019-03-30T05:55:38.625Z,65.26
2019-03-30T05:58:08.104Z,65.22
2019-03-30T06:00:37.591Z,65.45
2019-03-30T06:03:07.114Z,65.42
2019-03-30T06:05:36.602Z,65.30
2019-03-30T06:08:06.086Z,65.20
2019-03-30T06:10:38.640Z,65.34
2019-03-30T06:13:06.766Z,65.30
2019-03-30T06:15:36.223Z,65.13
2019-03-30T06:18:05.789Z,65.31
2019-03-30T06:20:35.277Z,65.00
2019-03-30T06:23:04.936Z,64.75
2019-03-30T06:25:34.395Z,64.56
2019-03-30T06:28:03.877Z,64.17
2019-03-30T06:30:33.334Z,64.31
2019-03-30T06:33:02.819Z,63.76
2019-03-30T06:35:32.278Z,63.54
2019-03-30T06:38:01.769Z,63.25
2019-03-30T06:40:31.412Z,63.21
2019-03-30T06:43:00.960Z,63.04
2019-03-30T06:45:30.429Z,62.82
2019-03-30T06:47:59.927Z,62.43
2019-03-30T06:50:29.406Z,62.40
2019-03-30T06:52:59.141Z,61.70
2019-03-30T06:55:28.671Z,62.56
2019-03-30T06:57:58.221Z,61.63
2019-03-30T07:00:35.437Z,61.63
2019-03-30T07:03:08.640Z,61.70
2019-03-30T07:05:42.704Z,61.20
2019-03-30T07:08:17.804Z,60.53
2019-03-30T07:10:48.710Z,61.59
2019-03-30T07:13:18.624Z,61.66
2019-03-30T07:15:49.918Z,60.89
2019-03-30T07:18:20.219Z,61.47
2019-03-30T07:20:49.849Z,60.43
2019-03-30T07:23:19.404Z,60.11
2019-03-30T07:25:48.981Z,60.05
2019-03-30T07:28:18.474Z,59.81
2019-03-30T07:30:48.024Z,58.60
2019-03-30T07:33:17.538Z,58.32
2019-03-30T07:35:47.024Z,58.25
2019-03-30T07:38:16.507Z,57.75
2019-03-30T07:40:46.059Z,57.13
2019-03-30T07:43:15.701Z,57.15
2019-03-30T07:45:45.249Z,56.46
2019-03-30T07:48:14.853Z,56.38
2019-03-30T07:50:44.334Z,55.71
2019-03-30T07:53:25.487Z,55.82
2019-03-30T07:55:45.030Z,54.10
2019-03-30T07:58:14.521Z,54.17
2019-03-30T08:00:43.991Z,52.84
2019-03-30T08:03:13.547Z,53.68
2019-03-30T08:05:43.010Z,52.91
2019-03-30T08:08:12.633Z,53.12
2019-03-30T08:10:42.261Z,51.90
2019-03-30T08:13:11.763Z,51.68
2019-03-30T08:15:41.274Z,50.94
2019-03-30T08:18:10.842Z,50.31
2019-03-30T08:20:40.390Z,50.68
2019-03-30T08:23:09.964Z,49.83
2019-03-30T08:25:39.511Z,49.74
2019-03-30T08:28:09.007Z,49.26
2019-03-30T08:30:38.556Z,48.72
2019-03-30T08:33:08.052Z,48.63
2019-03-30T08:35:37.542Z,48.36
2019-03-30T08:38:07.168Z,48.16
2019-03-30T08:40:36.670Z,46.14
2019-03-30T08:43:06.350Z,47.16
2019-03-30T08:45:35.901Z,46.29
2019-03-30T08:48:05.367Z,46.07
2019-03-30T08:50:34.850Z,45.68
2019-03-30T08:53:04.390Z,45.42
2019-03-30T08:55:33.914Z,44.96
2019-03-30T08:58:22.809Z,45.52
2019-03-30T09:00:52.365Z,45.53
2019-03-30T09:03:21.834Z,45.12
2019-03-30T09:05:51.413Z,44.98
2019-03-30T09:08:20.972Z,45.38
2019-03-30T09:10:50.478Z,44.49
2019-03-30T09:13:19.977Z,43.15
2019-03-30T09:15:52.374Z,42.97
2019-03-30T09:18:21.879Z,43.33
2019-03-30T09:20:51.480Z,42.97
2019-03-30T09:23:20.971Z,43.12
2019-03-30T09:25:50.455Z,43.23
2019-03-30T09:28:19.920Z,41.82
2019-03-30T09:30:49.426Z,40.36
2019-03-30T09:33:19.160Z,40.68
2019-03-30T09:35:48.712Z,41.15
2019-03-30T09:38:18.288Z,40.29
2019-03-30T09:40:49.229Z,40.24
2019-03-30T09:43:18.692Z,40.97
2019-03-30T09:45:48.264Z,40.06
2019-03-30T09:48:17.727Z,40.51
2019-03-30T09:51:06.763Z,39.72
2019-03-30T09:53:36.300Z,40.01
2019-03-30T09:56:05.940Z,40.33
2019-03-30T09:58:35.470Z,38.86
2019-03-30T10:01:05.079Z,39.14
2019-03-30T10:03:34.573Z,39.28
2019-03-30T10:06:04.206Z,39.90
2019-03-30T10:08:53.082Z,39.04
2019-03-30T10:11:22.562Z,38.80
2019-03-30T10:13:52.110Z,38.49
2019-03-30T10:16:21.606Z,37.83
2019-03-30T10:18:51.086Z,37.73
2019-03-30T10:21:20.579Z,37.54
2019-03-30T10:23:50.035Z,38.30
2019-03-30T10:26:19.540Z,36.83
2019-03-30T10:28:49.010Z,37.67
2019-03-30T10:31:18.508Z,37.25
2019-03-30T10:33:48.036Z,36.35
2019-03-30T10:36:17.577Z,35.47
2019-03-30T10:38:47.080Z,35.36
2019-03-30T10:41:16.665Z,35.89
2019-03-30T10:43:46.166Z,35.17
2019-03-30T10:46:15.678Z,34.67
2019-03-30T10:48:45.145Z,34.80
2019-03-30T10:51:14.704Z,35.24
2019-03-30T10:53:44.170Z,34.67
2019-03-30T10:56:13.653Z,34.59
2019-03-30T10:58:43.261Z,34.62
2019-03-30T11:01:12.697Z,33.36
2019-03-30T11:03:42.204Z,33.12
2019-03-30T11:06:11.820Z,32.24
2019-03-30T11:08:41.284Z,33.46
2019-03-30T11:11:10.813Z,32.22
2019-03-30T11:13:40.310Z,32.92
2019-03-30T11:16:09.778Z,32.12
2019-03-30T11:18:39.241Z,32.21
2019-03-30T11:21:08.749Z,32.75
2019-03-30T11:23:38.333Z,32.44
2019-03-30T11:26:27.321Z,32.01
2019-03-30T11:28:56.865Z,31.90
2019-03-30T11:31:26.380Z,31.87
2019-03-30T11:33:55.847Z,32.09
2019-03-30T11:36:25.340Z,31.31
2019-03-30T11:38:54.847Z,31.54
2019-03-30T11:41:25.051Z,31.42
2019-03-30T11:43:54.865Z,31.89
2019-03-30T11:46:24.340Z,31.02
2019-03-30T11:48:53.831Z,30.92
2019-03-30T11:51:23.405Z,31.09
2019-03-30T11:53:52.950Z,31.00
2019-03-30T11:56:22.536Z,31.06
2019-03-30T11:58:52.138Z,31.02
2019-03-30T12:01:21.989Z,31.60
2019-03-30T12:03:51.586Z,30.70
2019-03-30T12:06:21.049Z,30.69
2019-03-30T12:08:50.823Z,30.35
2019-03-30T12:11:20.382Z,30.94
2019-03-30T12:13:49.936Z,30.64
2019-03-30T12:16:19.441Z,30.17
2019-03-30T12:18:48.949Z,30.04
2019-03-30T12:21:18.495Z,30.56
2019-03-30T12:23:47.988Z,30.34
2019-03-30T12:26:17.510Z,30.56
2019-03-30T12:28:47.066Z,30.06
2019-03-30T12:31:16.554Z,30.60
2019-03-30T12:33:46.026Z,30.95
2019-03-30T12:36:15.570Z,31.08
2019-03-30T12:39:06.448Z,30.84
2019-03-30T12:41:36.062Z,31.06
2019-03-30T12:44:05.626Z,29.37
2019-03-30T12:46:35.205Z,29.37
2019-03-30T12:49:04.767Z,30.60
2019-03-30T12:51:34.299Z,29.79
2019-03-30T12:54:03.791Z,29.46
2019-03-30T12:56:33.270Z,30.03
2019-03-30T12:59:02.777Z,29.32
2019-03-30T13:01:32.326Z,29.36
2019-03-30T13:04:01.881Z,29.41
2019-03-30T13:06:31.363Z,28.65
2019-03-30T13:09:00.831Z,29.31
2019-03-30T13:11:30.311Z,29.37
2019-03-30T13:13:59.870Z,30.44
2019-03-30T13:16:29.407Z,29.88
2019-03-30T13:18:58.978Z,29.05
2019-03-30T13:21:28.521Z,28.93
2019-03-30T13:23:58.042Z,29.20
2019-03-30T13:26:27.520Z,29.30
2019-03-30T13:28:57.012Z,28.46
2019-03-30T13:31:26.541Z,28.88
2019-03-30T13:33:56.046Z,29.10
2019-03-30T13:36:38.925Z,28.57
2019-03-30T13:39:09.537Z,28.67
2019-03-30T13:41:39.195Z,29.06
2019-03-30T13:44:09.113Z,28.25
2019-03-30T13:46:38.729Z,29.01
2019-03-30T13:49:08.248Z,28.15
2019-03-30T13:51:37.749Z,28.38
2019-03-30T13:54:07.376Z,28.76
2019-03-30T13:56:36.856Z,28.53
2019-03-30T13:59:06.345Z,28.27
2019-03-30T14:01:37.354Z,28.22
2019-03-30T14:04:06.844Z,28.66
2019-03-30T14:06:36.404Z,28.62
2019-03-30T14:09:07.646Z,28.09
2019-03-30T14:11:37.117Z,28.48
2019-03-30T14:14:06.634Z,28.43
2019-03-30T14:16:36.148Z,28.72
2019-03-30T14:19:05.689Z,28.95
2019-03-30T14:21:35.407Z,28.78
2019-03-30T14:24:05.148Z,28.70
2019-03-30T14:26:34.624Z,28.93
2019-03-30T14:29:04.195Z,29.50
2019-03-30T14:31:33.795Z,29.05
2019-03-30T14:34:03.267Z,28.80
2019-03-30T14:36:32.788Z,28.64
2019-03-30T14:39:02.256Z,29.06
2019-03-30T14:41:31.829Z,29.08
2019-03-30T14:44:01.398Z,28.80
2019-03-30T14:46:30.959Z,29.65
2019-03-30T14:49:02.119Z,29.16
2019-03-30T14:51:31.575Z,29.71
2019-03-30T14:54:01.251Z,29.60
2019-03-30T14:56:44.568Z,29.29
2019-03-30T14:59:09.936Z,29.48
2019-03-30T15:01:33.208Z,29.50
2019-03-30T15:04:02.861Z,29.03
2019-03-30T15:06:32.357Z,29.20
2019-03-30T15:09:01.925Z,29.03
2019-03-30T15:11:31.394Z,29.50
2019-03-30T15:14:01.015Z,29.44
2019-03-30T15:16:30.549Z,29.98
2019-03-30T15:19:00.084Z,28.96
2019-03-30T15:21:29.602Z,29.90
2019-03-30T15:23:59.105Z,29.08
2019-03-30T15:26:28.587Z,29.59
2019-03-30T15:28:58.099Z,29.59
2019-03-30T15:31:29.596Z,29.23
2019-03-30T15:33:59.100Z,29.27
2019-03-30T15:36:28.580Z,29.50
2019-03-30T15:38:58.053Z,29.63
2019-03-30T15:41:27.559Z,30.22
2019-03-30T15:43:57.056Z,29.31
2019-03-30T15:46:26.539Z,30.27
2019-03-30T15:48:56.096Z,30.08
2019-03-30T15:51:25.573Z,29.62
2019-03-30T15:53:55.103Z,30.49
2019-03-30T15:56:24.577Z,29.55
2019-03-30T15:58:54.088Z,29.05
2019-03-30T16:01:23.564Z,29.30
2019-03-30T16:03:53.030Z,28.77
2019-03-30T16:06:22.621Z,29.40
2019-03-30T16:08:52.129Z,29.04
2019-03-30T16:11:21.771Z,28.76
2019-03-30T16:13:51.263Z,28.82
2019-03-30T16:16:20.833Z,29.12
2019-03-30T16:18:50.363Z,29.07
2019-03-30T16:21:19.819Z,29.32
2019-03-30T16:23:49.354Z,29.49
2019-03-30T16:26:20.497Z,28.78
2019-03-30T16:28:50.087Z,29.34
2019-03-30T16:31:19.690Z,29.60
2019-03-30T16:33:49.486Z,29.73
2019-03-30T16:36:19.014Z,29.24
2019-03-30T16:38:48.591Z,29.93
2019-03-30T16:41:18.095Z,30.16
2019-03-30T16:43:47.573Z,29.48
2019-03-30T16:46:17.046Z,29.42
2019-03-30T16:48:46.553Z,30.28
2019-03-30T16:51:16.076Z,29.76
2019-03-30T16:53:47.300Z,30.67
2019-03-30T16:56:16.784Z,30.36
2019-03-30T16:58:46.296Z,29.60
2019-03-30T17:01:15.841Z,29.88
2019-03-30T17:03:45.414Z,29.56
2019-03-30T17:06:15.091Z,29.79
2019-03-30T17:08:44.713Z,29.97
2019-03-30T17:11:14.208Z,30.25
2019-03-30T17:14:03.123Z,30.44
2019-03-30T17:16:32.687Z,30.03
2019-03-30T17:19:02.157Z,30.04
2019-03-30T17:21:31.705Z,30.50
2019-03-30T17:24:01.245Z,30.32
2019-03-30T17:26:30.708Z,30.26
2019-03-30T17:29:00.196Z,30.66
2019-03-30T17:31:49.047Z,30.64
2019-03-30T17:34:18.581Z,30.73
2019-03-30T17:36:48.091Z,30.86
2019-03-30T17:39:17.598Z,30.96
2019-03-30T17:41:47.158Z,31.04
2019-03-30T17:44:16.707Z,31.99
2019-03-30T17:46:46.199Z,32.19
2019-03-30T17:49:15.695Z,33.66
2019-03-30T17:51:45.258Z,33.70
2019-03-30T17:54:14.846Z,34.34
2019-03-30T17:56:44.329Z,34.74
2019-03-30T17:59:13.891Z,36.17
2019-03-30T18:01:43.495Z,36.45
2019-03-30T18:04:13.010Z,36.63
2019-03-30T18:06:42.582Z,37.58
2019-03-30T18:09:12.148Z,37.62
2019-03-30T18:11:41.754Z,38.51
2019-03-30T18:14:11.237Z,39.04
2019-03-30T18:16:40.735Z,39.13
2019-03-30T18:19:10.215Z,39.89
2019-03-30T18:21:39.714Z,40.21
2019-03-30T18:24:09.382Z,40.72
2019-03-30T18:26:38.884Z,40.80
2019-03-30T18:29:08.472Z,41.07
2019-03-30T18:31:38.469Z,41.21
2019-03-30T18:34:07.990Z,42.00
2019-03-30T18:36:39.799Z,42.36
2019-03-30T18:39:10.326Z,42.66
2019-03-30T18:41:39.939Z,43.09
2019-03-30T18:44:09.783Z,43.26
2019-03-30T18:46:39.266Z,43.67
2019-03-30T18:49:08.742Z,44.24
2019-03-30T18:51:42.324Z,44.59
2019-03-30T18:54:12.494Z,44.53
2019-03-30T18:56:41.962Z,45.35
2019-03-30T18:59:11.826Z,45.53
2019-03-30T19:01:41.500Z,45.74
2019-03-30T19:04:11.036Z,45.82
2019-03-30T19:06:40.544Z,46.13
2019-03-30T19:09:10.239Z,46.77
2019-03-30T19:11:39.738Z,46.76
2019-03-30T19:14:09.211Z,46.65
2019-03-30T19:16:38.741Z,46.98
2019-03-30T19:19:08.395Z,47.09
2019-03-30T19:21:37.906Z,47.41
2019-03-30T19:24:07.539Z,47.29
2019-03-30T19:26:37.101Z,47.91
2019-03-30T19:29:06.610Z,48.01
2019-03-30T19:31:36.166Z,48.44
2019-03-30T19:34:05.789Z,48.90
2019-03-30T19:36:35.265Z,48.53
2019-03-30T19:39:07.757Z,49.22
2019-03-30T19:41:37.338Z,48.73
2019-03-30T19:44:06.990Z,49.75
2019-03-30T19:46:36.506Z,49.70
2019-03-30T19:49:06.019Z,49.70
2019-03-30T19:51:35.528Z,50.36
2019-03-30T19:54:05.082Z,50.28
2019-03-30T19:56:34.613Z,50.57
2019-03-30T19:59:10.448Z,50.78
2019-03-30T20:01:35.532Z,50.84
2019-03-30T20:04:07.722Z,51.23
2019-03-30T20:06:36.580Z,51.28
2019-03-30T20:09:08.731Z,51.48
2019-03-30T20:11:38.261Z,51.28
2019-03-30T20:14:07.750Z,51.60
2019-03-30T20:16:37.277Z,51.97
2019-03-30T20:19:12.560Z,52.18
2019-03-30T20:21:38.147Z,52.51
2019-03-30T20:24:07.647Z,51.76
2019-03-30T20:26:56.506Z,52.03
2019-03-30T20:29:26.087Z,52.41
2019-03-30T20:31:55.656Z,52.25
2019-03-30T20:34:25.173Z,52.02
2019-03-30T20:36:57.365Z,52.86
2019-03-30T20:39:26.092Z,53.10
2019-03-30T20:41:55.590Z,53.10
2019-03-30T20:44:25.108Z,53.45
2019-03-30T20:46:54.768Z,53.43
2019-03-30T20:49:24.231Z,53.60
2019-03-30T20:51:53.800Z,53.73
2019-03-30T20:54:23.328Z,53.95
2019-03-30T20:56:52.839Z,54.08
2019-03-30T20:59:22.383Z,53.98
2019-03-30T21:01:51.983Z,54.11
2019-03-30T21:04:21.469Z,54.01
2019-03-30T21:06:51.080Z,54.40
2019-03-30T21:09:20.568Z,54.51
2019-03-30T21:11:50.083Z,54.74
2019-03-30T21:14:19.633Z,54.55
2019-03-30T21:16:49.186Z,55.01
2019-03-30T21:19:18.752Z,54.69
2019-03-30T21:21:48.335Z,54.42
2019-03-30T21:24:17.801Z,54.78
2019-03-30T21:26:47.347Z,55.08
2019-03-30T21:29:16.845Z,54.72
2019-03-30T21:31:49.149Z,55.11
2019-03-30T21:34:39.492Z,55.35
2019-03-30T21:37:09.064Z,55.47
2019-03-30T21:39:38.545Z,55.43
2019-03-30T21:42:08.017Z,55.50
2019-03-30T21:44:37.504Z,55.57
2019-03-30T21:47:07.021Z,55.66
2019-03-30T21:49:36.578Z,56.08
2019-03-30T21:52:06.428Z,56.18
2019-03-30T21:54:35.930Z,56.46
2019-03-30T21:57:05.480Z,56.54
2019-03-30T21:59:35.050Z,56.71
2019-03-30T22:02:04.658Z,56.65
2019-03-30T22:04:34.231Z,56.83
2019-03-30T22:07:03.830Z,56.87
2019-03-30T22:09:33.456Z,56.50
2019-03-30T22:12:02.974Z,56.77
2019-03-30T22:14:32.429Z,57.00
2019-03-30T22:17:01.938Z,56.94
2019-03-30T22:19:31.549Z,57.15
2019-03-30T22:22:01.043Z,57.29
2019-03-30T22:24:30.524Z,57.59
2019-03-30T22:27:00.020Z,57.55
2019-03-30T22:29:29.525Z,57.56
2019-03-30T22:31:58.996Z,57.35
2019-03-30T22:34:28.490Z,57.58
2019-03-30T22:36:58.091Z,57.51
2019-03-30T22:39:47.079Z,57.84
2019-03-30T22:42:16.652Z,57.88
2019-03-30T22:44:46.198Z,57.91
2019-03-30T22:47:15.691Z,58.12
2019-03-30T22:49:45.195Z,58.24
2019-03-30T22:52:14.681Z,58.22
2019-03-30T22:54:44.161Z,58.09
2019-03-30T22:57:13.620Z,58.44
2019-03-30T22:59:43.103Z,58.38
2019-03-30T23:02:12.656Z,58.49
2019-03-30T23:04:42.190Z,58.52
2019-03-30T23:07:11.862Z,58.46
2019-03-30T23:09:41.364Z,58.37
2019-03-30T23:12:10.864Z,58.72
2019-03-30T23:14:40.325Z,58.41
2019-03-30T23:17:09.813Z,58.87
2019-03-30T23:19:39.268Z,58.88
2019-03-30T23:22:08.761Z,59.07
2019-03-30T23:24:40.113Z,59.26
2019-03-30T23:27:09.572Z,59.25
2019-03-30T23:29:39.108Z,59.34
2019-03-30T23:32:08.613Z,59.37
2019-03-30T23:34:38.139Z,59.58
2019-03-30T23:37:07.624Z,59.68
2019-03-30T23:39:37.118Z,59.42
2019-03-30T23:42:06.635Z,59.62
2019-03-30T23:44:36.112Z,59.72
2019-03-30T23:47:05.652Z,59.86
2019-03-30T23:49:35.148Z,59.90
2019-03-30T23:52:04.625Z,59.96
2019-03-30T23:54:34.171Z,60.08
2019-03-30T23:57:03.636Z,59.91
2019-03-30T23:59:33.129Z,60.37
